sensor_id;sensor_type;location;lat;lon;timestamp;pressure;altitude;pressure_sealevel;temperature;humidity
12213;BME280;6169;44.158;22.788;2023-04-03T00:03:10;100411.09;;;13.66;45.22
12213;BME280;6169;44.158;22.788;2023-04-03T00:08:12;100406.00;;;13.79;45.16
12213;BME280;6169;44.158;22.788;2023-04-03T00:13:16;100402.47;;;13.79;44.99
12213;BME280;6169;44.158;22.788;2023-04-03T00:18:20;100395.81;;;13.22;47.00
12213;BME280;6169;44.158;22.788;2023-04-03T00:23:23;100388.94;;;12.82;48.20
12213;BME280;6169;44.158;22.788;2023-04-03T00:28:27;100393.38;;;13.26;47.06
12213;BME280;6169;44.158;22.788;2023-04-03T00:33:29;100384.66;;;13.29;47.00
12213;BME280;6169;44.158;22.788;2023-04-03T00:38:31;100394.66;;;13.60;46.34
12213;BME280;6169;44.158;22.788;2023-04-03T00:43:35;100385.19;;;13.26;47.17
12213;BME280;6169;44.158;22.788;2023-04-03T00:48:40;100402.25;;;13.48;46.93
12213;BME280;6169;44.158;22.788;2023-04-03T00:53:46;100406.63;;;13.12;48.73
12213;BME280;6169;44.158;22.788;2023-04-03T00:58:52;100405.34;;;13.20;47.98
12213;BME280;6169;44.158;22.788;2023-04-03T01:03:55;100406.81;;;13.00;48.83
12213;BME280;6169;44.158;22.788;2023-04-03T01:08:59;100409.19;;;13.24;48.08
12213;BME280;6169;44.158;22.788;2023-04-03T01:14:02;100408.81;;;13.47;46.60
12213;BME280;6169;44.158;22.788;2023-04-03T01:19:09;100420.56;;;13.10;47.60
12213;BME280;6169;44.158;22.788;2023-04-03T01:24:32;100415.28;;;13.36;47.33
12213;BME280;6169;44.158;22.788;2023-04-03T01:29:36;100413.75;;;13.50;46.93
12213;BME280;6169;44.158;22.788;2023-04-03T01:34:40;100415.91;;;13.48;46.30
12213;BME280;6169;44.158;22.788;2023-04-03T01:39:42;100418.34;;;13.87;45.22
12213;BME280;6169;44.158;22.788;2023-04-03T01:44:45;100419.63;;;14.42;43.64
12213;BME280;6169;44.158;22.788;2023-04-03T01:49:48;100421.03;;;13.77;45.40
12213;BME280;6169;44.158;22.788;2023-04-03T01:54:51;100411.88;;;14.14;44.21
12213;BME280;6169;44.158;22.788;2023-04-03T01:59:53;100410.59;;;14.32;43.18
12213;BME280;6169;44.158;22.788;2023-04-03T02:04:56;100417.06;;;14.10;43.17
12213;BME280;6169;44.158;22.788;2023-04-03T02:09:59;100419.97;;;13.46;45.25
12213;BME280;6169;44.158;22.788;2023-04-03T02:15:01;100419.41;;;13.86;43.89
12213;BME280;6169;44.158;22.788;2023-04-03T02:20:06;100437.69;;;13.75;44.09
12213;BME280;6169;44.158;22.788;2023-04-03T02:25:09;100440.16;;;13.77;43.22
12213;BME280;6169;44.158;22.788;2023-04-03T02:30:13;100445.63;;;13.82;43.92
12213;BME280;6169;44.158;22.788;2023-04-03T02:35:17;100434.22;;;13.90;44.08
12213;BME280;6169;44.158;22.788;2023-04-03T02:40:19;100431.50;;;13.95;43.18
12213;BME280;6169;44.158;22.788;2023-04-03T02:45:21;100436.97;;;13.53;44.05
12213;BME280;6169;44.158;22.788;2023-04-03T02:50:25;100433.50;;;13.25;44.38
12213;BME280;6169;44.158;22.788;2023-04-03T02:55:27;100424.50;;;12.65;45.43
12213;BME280;6169;44.158;22.788;2023-04-03T03:00:29;100419.56;;;13.27;44.29
12213;BME280;6169;44.158;22.788;2023-04-03T03:05:33;100427.81;;;13.32;44.15
12213;BME280;6169;44.158;22.788;2023-04-03T03:10:35;100432.44;;;12.72;45.15
12213;BME280;6169;44.158;22.788;2023-04-03T03:15:37;100426.69;;;12.96;44.94
12213;BME280;6169;44.158;22.788;2023-04-03T03:20:41;100424.41;;;12.82;44.96
12213;BME280;6169;44.158;22.788;2023-04-03T03:25:43;100432.47;;;12.99;44.61
12213;BME280;6169;44.158;22.788;2023-04-03T03:30:45;100421.88;;;12.54;45.32
12213;BME280;6169;44.158;22.788;2023-04-03T03:35:49;100431.03;;;12.42;45.27
12213;BME280;6169;44.158;22.788;2023-04-03T03:40:52;100431.44;;;12.07;45.79
12213;BME280;6169;44.158;22.788;2023-04-03T03:45:54;100427.88;;;12.29;45.79
12213;BME280;6169;44.158;22.788;2023-04-03T03:50:58;100433.03;;;12.03;46.72
12213;BME280;6169;44.158;22.788;2023-04-03T03:56:00;100442.91;;;12.31;45.55
12213;BME280;6169;44.158;22.788;2023-04-03T04:01:03;100439.88;;;12.28;45.62
12213;BME280;6169;44.158;22.788;2023-04-03T04:06:07;100431.31;;;12.41;45.57
12213;BME280;6169;44.158;22.788;2023-04-03T04:11:09;100424.56;;;12.76;44.49
12213;BME280;6169;44.158;22.788;2023-04-03T04:16:11;100428.69;;;13.05;44.51
12213;BME280;6169;44.158;22.788;2023-04-03T04:21:15;100433.28;;;13.00;43.90
12213;BME280;6169;44.158;22.788;2023-04-03T04:26:17;100438.22;;;12.27;45.78
12213;BME280;6169;44.158;22.788;2023-04-03T04:31:21;100425.72;;;12.53;45.03
12213;BME280;6169;44.158;22.788;2023-04-03T04:36:25;100432.84;;;12.81;44.89
12213;BME280;6169;44.158;22.788;2023-04-03T04:41:27;100438.78;;;13.05;44.79
12213;BME280;6169;44.158;22.788;2023-04-03T04:46:29;100433.41;;;13.15;44.49
12213;BME280;6169;44.158;22.788;2023-04-03T04:51:33;100427.72;;;13.59;43.68
12213;BME280;6169;44.158;22.788;2023-04-03T04:56:35;100434.22;;;13.15;45.07
12213;BME280;6169;44.158;22.788;2023-04-03T05:01:37;100431.41;;;13.37;44.83
12213;BME280;6169;44.158;22.788;2023-04-03T05:06:41;100432.28;;;13.91;44.13
12213;BME280;6169;44.158;22.788;2023-04-03T05:11:43;100439.97;;;13.14;45.77
12213;BME280;6169;44.158;22.788;2023-04-03T05:16:46;100436.44;;;13.61;45.40
12213;BME280;6169;44.158;22.788;2023-04-03T05:21:49;100445.44;;;13.94;45.48
12213;BME280;6169;44.158;22.788;2023-04-03T05:26:52;100457.28;;;14.15;45.89
12213;BME280;6169;44.158;22.788;2023-04-03T05:31:54;100472.03;;;15.12;43.68
12213;BME280;6169;44.158;22.788;2023-04-03T05:36:57;100475.31;;;15.04;43.92
12213;BME280;6169;44.158;22.788;2023-04-03T05:42:00;100478.91;;;15.05;44.24
12213;BME280;6169;44.158;22.788;2023-04-03T05:47:02;100484.66;;;15.34;44.14
12213;BME280;6169;44.158;22.788;2023-04-03T05:52:06;100487.66;;;15.48;44.39
12213;BME280;6169;44.158;22.788;2023-04-03T05:57:08;100489.03;;;15.14;45.66
12213;BME280;6169;44.158;22.788;2023-04-03T06:02:12;100498.31;;;14.88;46.06
12213;BME280;6169;44.158;22.788;2023-04-03T06:07:17;100498.59;;;15.32;45.25
12213;BME280;6169;44.158;22.788;2023-04-03T06:12:21;100498.59;;;15.94;44.74
12213;BME280;6169;44.158;22.788;2023-04-03T06:17:24;100507.63;;;15.94;43.24
12213;BME280;6169;44.158;22.788;2023-04-03T06:22:29;100514.53;;;15.71;42.89
12213;BME280;6169;44.158;22.788;2023-04-03T06:27:31;100524.91;;;15.95;42.60
12213;BME280;6169;44.158;22.788;2023-04-03T06:32:34;100512.34;;;15.78;43.39
12213;BME280;6169;44.158;22.788;2023-04-03T06:37:38;100519.19;;;15.81;43.35
12213;BME280;6169;44.158;22.788;2023-04-03T06:42:40;100524.88;;;16.85;41.17
12213;BME280;6169;44.158;22.788;2023-04-03T06:47:42;100541.91;;;16.82;41.87
12213;BME280;6169;44.158;22.788;2023-04-03T06:52:47;100545.88;;;17.05;41.40
12213;BME280;6169;44.158;22.788;2023-04-03T06:57:49;100540.13;;;17.46;39.94
12213;BME280;6169;44.158;22.788;2023-04-03T07:02:51;100540.59;;;17.88;38.18
12213;BME280;6169;44.158;22.788;2023-04-03T07:07:55;100532.81;;;16.82;40.84
12213;BME280;6169;44.158;22.788;2023-04-03T07:12:58;100529.47;;;16.95;41.61
12213;BME280;6169;44.158;22.788;2023-04-03T07:18:00;100544.91;;;17.99;38.81
12213;BME280;6169;44.158;22.788;2023-04-03T07:23:03;100549.50;;;19.00;37.67
12213;BME280;6169;44.158;22.788;2023-04-03T07:28:06;100554.69;;;18.58;37.88
12213;BME280;6169;44.158;22.788;2023-04-03T07:33:08;100542.19;;;18.23;39.42
12213;BME280;6169;44.158;22.788;2023-04-03T07:38:13;100545.44;;;18.73;37.99
12213;BME280;6169;44.158;22.788;2023-04-03T07:43:15;100542.47;;;19.26;37.05
12213;BME280;6169;44.158;22.788;2023-04-03T07:48:19;100533.69;;;18.43;37.42
12213;BME280;6169;44.158;22.788;2023-04-03T07:53:23;100524.91;;;18.41;38.08
12213;BME280;6169;44.158;22.788;2023-04-03T07:58:25;100529.06;;;18.82;36.99
12213;BME280;6169;44.158;22.788;2023-04-03T08:03:27;100529.47;;;18.94;36.60
12213;BME280;6169;44.158;22.788;2023-04-03T08:08:31;100532.50;;;19.11;35.78
12213;BME280;6169;44.158;22.788;2023-04-03T08:13:34;100539.34;;;19.85;35.40
12213;BME280;6169;44.158;22.788;2023-04-03T08:18:37;100522.84;;;20.40;34.34
12213;BME280;6169;44.158;22.788;2023-04-03T08:23:41;100520.94;;;19.80;34.06
12213;BME280;6169;44.158;22.788;2023-04-03T08:28:43;100526.53;;;19.23;34.87
12213;BME280;6169;44.158;22.788;2023-04-03T08:33:46;100520.03;;;19.85;34.10
12213;BME280;6169;44.158;22.788;2023-04-03T08:38:51;100508.84;;;20.36;32.93
12213;BME280;6169;44.158;22.788;2023-04-03T08:43:59;100500.13;;;21.29;31.90
12213;BME280;6169;44.158;22.788;2023-04-03T08:49:06;100493.03;;;20.64;33.39
12213;BME280;6169;44.158;22.788;2023-04-03T08:54:23;100492.41;;;20.67;33.07
12213;BME280;6169;44.158;22.788;2023-04-03T08:59:28;100486.78;;;20.86;31.86
12213;BME280;6169;44.158;22.788;2023-04-03T09:04:31;100492.41;;;20.67;31.94
12213;BME280;6169;44.158;22.788;2023-04-03T09:09:39;100496.59;;;20.79;31.35
12213;BME280;6169;44.158;22.788;2023-04-03T09:14:49;100499.13;;;21.25;30.21
12213;BME280;6169;44.158;22.788;2023-04-03T09:19:57;100494.78;;;21.10;30.05
12213;BME280;6169;44.158;22.788;2023-04-03T09:25:07;100492.28;;;21.45;29.44
12213;BME280;6169;44.158;22.788;2023-04-03T09:30:14;100485.22;;;20.94;28.86
12213;BME280;6169;44.158;22.788;2023-04-03T09:35:21;100489.28;;;22.18;28.29
12213;BME280;6169;44.158;22.788;2023-04-03T09:40:32;100482.34;;;21.44;29.58
12213;BME280;6169;44.158;22.788;2023-04-03T09:45:35;100473.78;;;21.32;29.77
12213;BME280;6169;44.158;22.788;2023-04-03T09:50:52;100473.09;;;22.68;28.22
12213;BME280;6169;44.158;22.788;2023-04-03T09:55:58;100420.41;;;21.85;29.00
12213;BME280;6169;44.158;22.788;2023-04-03T10:01:01;100476.78;;;22.38;28.87
12213;BME280;6169;44.158;22.788;2023-04-03T10:06:21;100479.38;;;21.94;29.31
12213;BME280;6169;44.158;22.788;2023-04-03T10:11:26;100482.47;;;21.62;29.66
12213;BME280;6169;44.158;22.788;2023-04-03T10:16:41;100477.94;;;21.66;28.78
12213;BME280;6169;44.158;22.788;2023-04-03T10:21:52;100484.69;;;23.23;27.69
12213;BME280;6169;44.158;22.788;2023-04-03T10:27:02;100468.75;;;23.75;26.84
12213;BME280;6169;44.158;22.788;2023-04-03T10:32:19;100465.19;;;23.66;27.75
12213;BME280;6169;44.158;22.788;2023-04-03T10:37:28;100467.28;;;23.78;27.04
12213;BME280;6169;44.158;22.788;2023-04-03T10:42:43;100461.56;;;23.74;27.21
12213;BME280;6169;44.158;22.788;2023-04-03T10:47:56;100458.72;;;23.92;26.61
12213;BME280;6169;44.158;22.788;2023-04-03T10:53:07;100449.75;;;23.95;27.07
12213;BME280;6169;44.158;22.788;2023-04-03T10:58:19;100430.25;;;24.12;26.68
12213;BME280;6169;44.158;22.788;2023-04-03T11:03:29;100427.94;;;23.03;27.01
12213;BME280;6169;44.158;22.788;2023-04-03T11:08:35;100431.28;;;23.52;26.81
12213;BME280;6169;44.158;22.788;2023-04-03T11:13:43;100412.22;;;24.18;27.00
12213;BME280;6169;44.158;22.788;2023-04-03T11:18:51;100404.59;;;24.57;26.28
12213;BME280;6169;44.158;22.788;2023-04-03T11:23:56;100408.47;;;23.85;26.80
12213;BME280;6169;44.158;22.788;2023-04-03T11:29:06;100410.34;;;22.81;27.25
12213;BME280;6169;44.158;22.788;2023-04-03T11:34:24;100398.25;;;23.03;28.27
12213;BME280;6169;44.158;22.788;2023-04-03T11:39:31;100384.94;;;22.88;28.18
12213;BME280;6169;44.158;22.788;2023-04-03T11:44:37;100372.19;;;22.52;28.71
12213;BME280;6169;44.158;22.788;2023-04-03T11:49:58;100382.59;;;23.16;27.35
12213;BME280;6169;44.158;22.788;2023-04-03T11:55:01;100381.81;;;22.89;27.80
12213;BME280;6169;44.158;22.788;2023-04-03T12:05:40;100371.44;;;23.80;28.08
12213;BME280;6169;44.158;22.788;2023-04-03T12:10:42;100369.09;;;23.62;27.16
12213;BME280;6169;44.158;22.788;2023-04-03T12:16:06;100373.41;;;23.33;27.63
12213;BME280;6169;44.158;22.788;2023-04-03T12:21:11;100367.56;;;23.17;27.42
12213;BME280;6169;44.158;22.788;2023-04-03T12:26:21;100368.28;;;23.61;27.29
12213;BME280;6169;44.158;22.788;2023-04-03T12:31:38;100320.88;;;22.20;28.16
12213;BME280;6169;44.158;22.788;2023-04-03T12:36:50;100355.09;;;22.33;28.18
12213;BME280;6169;44.158;22.788;2023-04-03T12:42:09;100334.97;;;23.14;27.38
12213;BME280;6169;44.158;22.788;2023-04-03T12:47:25;100330.13;;;23.02;27.56
12213;BME280;6169;44.158;22.788;2023-04-03T12:52:37;100333.44;;;22.52;28.32
12213;BME280;6169;44.158;22.788;2023-04-03T12:57:41;100328.72;;;22.35;28.86
12213;BME280;6169;44.158;22.788;2023-04-03T13:02:44;100312.66;;;21.40;31.83
12213;BME280;6169;44.158;22.788;2023-04-03T13:07:59;100316.97;;;20.70;33.50
12213;BME280;6169;44.158;22.788;2023-04-03T13:13:08;100320.16;;;20.18;35.99
12213;BME280;6169;44.158;22.788;2023-04-03T13:18:28;100329.75;;;20.07;36.54
12213;BME280;6169;44.158;22.788;2023-04-03T13:23:35;100336.75;;;19.63;37.97
12213;BME280;6169;44.158;22.788;2023-04-03T13:28:39;100336.56;;;19.46;40.40
12213;BME280;6169;44.158;22.788;2023-04-03T13:33:52;100342.53;;;19.20;40.38
12213;BME280;6169;44.158;22.788;2023-04-03T13:39:02;100319.47;;;19.16;39.92
12213;BME280;6169;44.158;22.788;2023-04-03T13:44:27;100329.56;;;19.34;38.66
12213;BME280;6169;44.158;22.788;2023-04-03T13:49:33;100317.78;;;19.48;39.42
12213;BME280;6169;44.158;22.788;2023-04-03T13:54:38;100309.63;;;19.10;40.07
12213;BME280;6169;44.158;22.788;2023-04-03T13:59:41;100311.03;;;19.68;37.90
12213;BME280;6169;44.158;22.788;2023-04-03T14:04:51;100301.44;;;19.65;38.08
12213;BME280;6169;44.158;22.788;2023-04-03T14:09:58;100310.16;;;18.46;38.84
12213;BME280;6169;44.158;22.788;2023-04-03T14:15:01;100276.78;;;18.67;39.37
12213;BME280;6169;44.158;22.788;2023-04-03T14:20:06;100274.59;;;19.43;38.44
12213;BME280;6169;44.158;22.788;2023-04-03T14:25:10;100284.69;;;19.75;37.90
12213;BME280;6169;44.158;22.788;2023-04-03T14:30:15;100311.97;;;18.37;39.02
12213;BME280;6169;44.158;22.788;2023-04-03T14:35:18;100337.31;;;19.05;39.89
12213;BME280;6169;44.158;22.788;2023-04-03T14:40:24;100339.28;;;18.85;39.52
12213;BME280;6169;44.158;22.788;2023-04-03T14:45:27;100348.50;;;18.94;40.18
12213;BME280;6169;44.158;22.788;2023-04-03T14:50:29;100328.47;;;18.37;42.71
12213;BME280;6169;44.158;22.788;2023-04-03T14:55:33;100331.50;;;17.98;44.09
12213;BME280;6169;44.158;22.788;2023-04-03T15:00:35;100303.50;;;17.48;45.78
12213;BME280;6169;44.158;22.788;2023-04-03T15:05:38;100286.06;;;17.38;46.80
12213;BME280;6169;44.158;22.788;2023-04-03T15:10:42;100298.50;;;17.31;46.49
12213;BME280;6169;44.158;22.788;2023-04-03T15:15:44;100291.88;;;17.32;46.73
12213;BME280;6169;44.158;22.788;2023-04-03T15:20:46;100311.72;;;17.53;46.30
12213;BME280;6169;44.158;22.788;2023-04-03T15:25:51;100327.25;;;17.63;46.53
12213;BME280;6169;44.158;22.788;2023-04-03T15:30:53;100333.34;;;18.02;46.03
12213;BME280;6169;44.158;22.788;2023-04-03T15:35:55;100327.06;;;17.78;46.86
12213;BME280;6169;44.158;22.788;2023-04-03T15:40:59;100320.34;;;18.08;47.12
12213;BME280;6169;44.158;22.788;2023-04-03T15:46:01;100320.81;;;17.72;47.22
12213;BME280;6169;44.158;22.788;2023-04-03T15:51:05;100324.50;;;17.63;47.07
12213;BME280;6169;44.158;22.788;2023-04-03T16:01:12;100312.69;;;17.38;46.70
12213;BME280;6169;44.158;22.788;2023-04-03T16:11:19;100305.06;;;17.30;47.19
12213;BME280;6169;44.158;22.788;2023-04-03T16:16:22;100298.88;;;16.90;48.30
12213;BME280;6169;44.158;22.788;2023-04-03T16:21:26;100299.19;;;16.88;48.40
12213;BME280;6169;44.158;22.788;2023-04-03T16:26:30;100294.22;;;17.20;47.90
12213;BME280;6169;44.158;22.788;2023-04-03T16:31:33;100301.59;;;17.48;48.34
12213;BME280;6169;44.158;22.788;2023-04-03T16:36:36;100306.16;;;17.34;47.66
12213;BME280;6169;44.158;22.788;2023-04-03T16:41:40;100318.66;;;16.87;48.55
12213;BME280;6169;44.158;22.788;2023-04-03T16:46:42;100310.72;;;16.85;48.45
12213;BME280;6169;44.158;22.788;2023-04-03T16:51:45;100307.16;;;16.51;49.41
12213;BME280;6169;44.158;22.788;2023-04-03T16:56:48;100304.81;;;16.28;49.96
12213;BME280;6169;44.158;22.788;2023-04-03T17:01:51;100313.22;;;16.82;48.41
12213;BME280;6169;44.158;22.788;2023-04-03T17:06:53;100294.75;;;16.58;48.87
12213;BME280;6169;44.158;22.788;2023-04-03T17:11:58;100290.56;;;16.32;50.24
12213;BME280;6169;44.158;22.788;2023-04-03T17:17:00;100289.47;;;16.96;49.53
12213;BME280;6169;44.158;22.788;2023-04-03T17:22:03;100280.34;;;16.42;49.59
12213;BME280;6169;44.158;22.788;2023-04-03T17:27:08;100276.88;;;15.82;50.87
12213;BME280;6169;44.158;22.788;2023-04-03T17:32:10;100267.69;;;16.46;48.73
12213;BME280;6169;44.158;22.788;2023-04-03T17:37:13;100268.97;;;16.20;49.81
12213;BME280;6169;44.158;22.788;2023-04-03T17:42:17;100275.38;;;16.79;49.57
12213;BME280;6169;44.158;22.788;2023-04-03T17:47:19;100288.50;;;16.82;50.85
12213;BME280;6169;44.158;22.788;2023-04-03T17:52:21;100280.09;;;16.73;49.87
12213;BME280;6169;44.158;22.788;2023-04-03T17:57:29;100280.31;;;16.47;50.66
12213;BME280;6169;44.158;22.788;2023-04-03T18:02:32;100281.44;;;16.76;50.23
12213;BME280;6169;44.158;22.788;2023-04-03T18:07:36;100276.84;;;16.32;50.28
12213;BME280;6169;44.158;22.788;2023-04-03T18:12:40;100268.28;;;16.43;51.77
12213;BME280;6169;44.158;22.788;2023-04-03T18:17:43;100276.56;;;16.67;51.42
12213;BME280;6169;44.158;22.788;2023-04-03T18:22:46;100254.84;;;16.42;52.16
12213;BME280;6169;44.158;22.788;2023-04-03T18:27:50;100258.91;;;16.79;51.71
12213;BME280;6169;44.158;22.788;2023-04-03T18:32:52;100245.13;;;16.55;52.10
12213;BME280;6169;44.158;22.788;2023-04-03T18:37:55;100236.72;;;16.46;52.82
12213;BME280;6169;44.158;22.788;2023-04-03T18:42:59;100230.06;;;16.52;52.73
12213;BME280;6169;44.158;22.788;2023-04-03T18:48:03;100220.56;;;16.39;53.52
12213;BME280;6169;44.158;22.788;2023-04-03T18:53:05;100227.50;;;16.26;54.72
12213;BME280;6169;44.158;22.788;2023-04-03T18:58:10;100215.28;;;16.48;54.07
12213;BME280;6169;44.158;22.788;2023-04-03T19:03:13;100215.22;;;16.19;54.32
12213;BME280;6169;44.158;22.788;2023-04-03T19:08:15;100213.31;;;16.14;55.15
12213;BME280;6169;44.158;22.788;2023-04-03T19:13:19;100212.47;;;16.19;55.08
12213;BME280;6169;44.158;22.788;2023-04-03T19:18:21;100209.78;;;16.14;54.93
12213;BME280;6169;44.158;22.788;2023-04-03T19:23:24;100197.72;;;16.15;55.36
12213;BME280;6169;44.158;22.788;2023-04-03T19:28:28;100194.41;;;16.52;54.47
12213;BME280;6169;44.158;22.788;2023-04-03T19:33:31;100185.03;;;16.24;54.82
12213;BME280;6169;44.158;22.788;2023-04-03T19:38:33;100184.09;;;16.34;54.54
12213;BME280;6169;44.158;22.788;2023-04-03T19:43:37;100193.31;;;15.74;56.83
12213;BME280;6169;44.158;22.788;2023-04-03T19:48:39;100193.09;;;15.06;59.67
12213;BME280;6169;44.158;22.788;2023-04-03T19:53:41;100194.53;;;15.58;59.52
12213;BME280;6169;44.158;22.788;2023-04-03T19:58:45;100196.19;;;15.49;60.80
12213;BME280;6169;44.158;22.788;2023-04-03T20:03:53;100200.31;;;15.96;59.09
12213;BME280;6169;44.158;22.788;2023-04-03T20:08:55;100200.88;;;15.43;61.49
12213;BME280;6169;44.158;22.788;2023-04-03T20:13:59;100212.63;;;15.49;60.89
12213;BME280;6169;44.158;22.788;2023-04-03T20:19:01;100215.91;;;15.56;60.83
12213;BME280;6169;44.158;22.788;2023-04-03T20:24:06;100205.94;;;16.15;59.17
12213;BME280;6169;44.158;22.788;2023-04-03T20:29:11;100217.03;;;15.50;60.83
12213;BME280;6169;44.158;22.788;2023-04-03T20:34:14;100222.13;;;16.11;59.12
12213;BME280;6169;44.158;22.788;2023-04-03T20:39:17;100160.91;;;15.42;59.00
12213;BME280;6169;44.158;22.788;2023-04-03T20:44:25;100210.72;;;15.54;59.88
12213;BME280;6169;44.158;22.788;2023-04-03T20:49:27;100204.56;;;15.13;61.14
12213;BME280;6169;44.158;22.788;2023-04-03T20:54:29;100192.53;;;15.69;58.79
12213;BME280;6169;44.158;22.788;2023-04-03T20:59:33;100190.88;;;15.78;58.59
12213;BME280;6169;44.158;22.788;2023-04-03T21:04:39;100190.13;;;15.62;59.49
12213;BME280;6169;44.158;22.788;2023-04-03T21:20:49;100169.41;;;14.45;62.77
12213;BME280;6169;44.158;22.788;2023-04-03T21:25:51;100173.25;;;14.39;62.98
12213;BME280;6169;44.158;22.788;2023-04-03T21:30:54;100178.94;;;13.71;65.69
12213;BME280;6169;44.158;22.788;2023-04-03T21:35:57;100191.03;;;14.06;64.67
12213;BME280;6169;44.158;22.788;2023-04-03T21:40:59;100188.31;;;14.16;65.23
12213;BME280;6169;44.158;22.788;2023-04-03T21:46:01;100194.56;;;13.96;65.08
12213;BME280;6169;44.158;22.788;2023-04-03T21:51:06;100194.28;;;13.77;66.12
12213;BME280;6169;44.158;22.788;2023-04-03T21:56:08;100190.44;;;13.83;67.16
12213;BME280;6169;44.158;22.788;2023-04-03T22:01:12;100194.84;;;13.94;65.67
12213;BME280;6169;44.158;22.788;2023-04-03T22:06:16;100199.22;;;13.85;65.44
12213;BME280;6169;44.158;22.788;2023-04-03T22:11:18;100198.66;;;14.70;62.86
12213;BME280;6169;44.158;22.788;2023-04-03T22:16:22;100200.34;;;14.40;63.12
12213;BME280;6169;44.158;22.788;2023-04-03T22:21:26;100195.09;;;14.59;62.61
12213;BME280;6169;44.158;22.788;2023-04-03T22:26:28;100195.94;;;14.19;64.09
12213;BME280;6169;44.158;22.788;2023-04-03T22:31:30;100201.34;;;13.68;66.16
12213;BME280;6169;44.158;22.788;2023-04-03T22:36:34;100201.94;;;14.57;62.83
12213;BME280;6169;44.158;22.788;2023-04-03T22:41:37;100200.31;;;13.99;62.82
12213;BME280;6169;44.158;22.788;2023-04-03T22:46:39;100196.09;;;13.51;63.49
12213;BME280;6169;44.158;22.788;2023-04-03T22:51:43;100191.25;;;12.58;65.88
12213;BME280;6169;44.158;22.788;2023-04-03T22:56:45;100195.06;;;12.94;64.84
12213;BME280;6169;44.158;22.788;2023-04-03T23:01:47;100195.13;;;13.09;65.00
12213;BME280;6169;44.158;22.788;2023-04-03T23:06:50;100178.44;;;13.01;64.99
12213;BME280;6169;44.158;22.788;2023-04-03T23:11:53;100183.25;;;12.41;66.90
12213;BME280;6169;44.158;22.788;2023-04-03T23:16:55;100178.53;;;12.74;64.47
12213;BME280;6169;44.158;22.788;2023-04-03T23:22:06;100181.94;;;12.91;63.27
12213;BME280;6169;44.158;22.788;2023-04-03T23:27:08;100167.31;;;13.18;61.54
12213;BME280;6169;44.158;22.788;2023-04-03T23:32:10;100151.84;;;13.44;61.22
12213;BME280;6169;44.158;22.788;2023-04-03T23:37:14;100140.22;;;12.11;65.45
12213;BME280;6169;44.158;22.788;2023-04-03T23:42:16;100142.59;;;11.75;65.30
12213;BME280;6169;44.158;22.788;2023-04-03T23:47:18;100147.06;;;11.32;65.50
12213;BME280;6169;44.158;22.788;2023-04-03T23:52:22;100140.03;;;11.09;66.10
12213;BME280;6169;44.158;22.788;2023-04-03T23:57:24;100137.50;;;10.63;66.71
